Time;durP1;ratioP1;P1;durP2;ratioP2;P2;SDS_P1;SDS_P2;PMS_P1;PMS_P2;Temp;Humidity;BMP_temperature;BMP_pressure;BME280_temperature;BME280_humidity;BME280_pressure;Samples;Min_cycle;Max_cycle;Signal;HPM_P1;HPM_P2
2023/03/20 00:01:12;;;;;;;30.53;13.53;;;4.20;99.90;;;;;;4862035;29;20204;-59
2023/03/20 00:03:40;;;;;;;28.80;13.90;;;4.20;99.90;;;;;;4857545;29;20223;-59
2023/03/20 00:06:15;;;;;;;24.40;13.67;;;4.10;99.90;;;;;;4853801;29;20232;-59
2023/03/20 00:08:45;;;;;;;27.60;13.87;;;4.20;99.90;;;;;;4857793;29;20222;-59
2023/03/20 00:11:29;;;;;;;31.37;14.90;;;4.10;99.90;;;;;;4855947;29;20239;-59
2023/03/20 00:14:01;;;;;;;28.73;14.87;;;4.10;99.90;;;;;;4857068;29;20223;-59
2023/03/20 00:16:32;;;;;;;29.43;14.67;;;4.00;99.90;;;;;;4857913;29;20580;-58
2023/03/20 00:19:00;;;;;;;28.53;14.13;;;4.00;99.90;;;;;;4858413;29;20208;-59
2023/03/20 00:21:29;;;;;;;36.10;15.00;;;3.90;99.90;;;;;;4860064;29;20219;-59
2023/03/20 00:23:58;;;;;;;32.63;15.27;;;3.80;99.90;;;;;;4858487;29;20222;-59
2023/03/20 00:26:31;;;;;;;28.97;15.00;;;3.80;99.90;;;;;;4854000;29;20253;-59
2023/03/20 00:29:02;;;;;;;26.40;14.33;;;3.70;99.90;;;;;;4853291;29;20227;-59
2023/03/20 00:31:33;;;;;;;26.97;13.83;;;3.60;99.90;;;;;;4850990;29;20264;-58
2023/03/20 00:34:03;;;;;;;30.87;14.00;;;3.50;99.90;;;;;;4854989;29;20566;-59
2023/03/20 00:36:32;;;;;;;31.33;14.17;;;3.60;99.90;;;;;;4856797;29;20386;-59
2023/03/20 00:39:01;;;;;;;27.13;13.23;;;3.80;99.90;;;;;;4853927;29;20246;-59
2023/03/20 00:41:32;;;;;;;32.00;13.97;;;3.90;99.90;;;;;;4851983;29;20220;-59
2023/03/20 00:44:09;;;;;;;29.63;13.17;;;3.90;99.90;;;;;;4853367;29;20228;-59
2023/03/20 00:46:39;;;;;;;32.03;14.30;;;3.80;99.90;;;;;;4854429;29;20191;-58
2023/03/20 00:49:10;;;;;;;29.17;14.33;;;3.90;99.90;;;;;;4839316;29;20610;-59
2023/03/20 00:51:39;;;;;;;29.97;15.20;;;3.90;99.90;;;;;;4854492;29;20571;-59
2023/03/20 00:54:12;;;;;;;28.43;15.00;;;4.00;99.90;;;;;;4857135;29;20235;-59
2023/03/20 00:56:45;;;;;;;29.27;14.50;;;4.00;99.90;;;;;;4850780;29;20223;-59
2023/03/20 00:59:18;;;;;;;34.97;14.87;;;4.00;99.90;;;;;;4855005;29;20231;-59
2023/03/20 01:01:46;;;;;;;34.07;16.03;;;4.00;99.90;;;;;;4854689;29;20598;-59
2023/03/20 01:04:18;;;;;;;34.10;16.20;;;3.90;99.90;;;;;;4854100;29;20864;-59
2023/03/20 01:06:46;;;;;;;37.20;16.37;;;3.90;99.90;;;;;;4855484;29;20223;-59
2023/03/20 01:09:15;;;;;;;36.23;17.03;;;4.00;99.90;;;;;;4851838;29;20231;-60
2023/03/20 01:11:45;;;;;;;37.67;17.70;;;4.10;99.90;;;;;;4855107;29;20316;-59
2023/03/20 01:14:16;;;;;;;38.27;17.47;;;4.10;99.90;;;;;;4852285;29;20240;-59
2023/03/20 01:16:45;;;;;;;41.40;17.17;;;4.10;99.90;;;;;;4858074;29;20291;-59
2023/03/20 01:19:15;;;;;;;33.40;17.33;;;4.10;99.90;;;;;;4856880;29;20192;-59
2023/03/20 01:21:43;;;;;;;38.90;18.27;;;4.10;99.90;;;;;;4856658;29;20713;-59
2023/03/20 01:24:12;;;;;;;43.13;17.63;;;4.20;99.90;;;;;;4855930;29;20242;-59
2023/03/20 01:26:42;;;;;;;42.37;18.30;;;4.20;99.90;;;;;;4854529;29;20231;-59
2023/03/20 01:29:18;;;;;;;35.73;17.47;;;4.20;99.90;;;;;;4857003;29;20251;-59
2023/03/20 01:31:46;;;;;;;38.97;18.53;;;4.30;99.90;;;;;;4857797;29;20247;-58
2023/03/20 01:34:16;;;;;;;36.60;17.73;;;4.30;99.90;;;;;;4851809;29;20191;-59
2023/03/20 01:36:48;;;;;;;37.10;18.90;;;4.30;99.90;;;;;;4857249;29;20235;-59
2023/03/20 01:39:17;;;;;;;38.80;18.47;;;4.30;99.90;;;;;;4855805;29;20705;-59
2023/03/20 01:41:47;;;;;;;41.13;18.37;;;4.40;99.90;;;;;;4856644;29;20318;-59
2023/03/20 01:44:22;;;;;;;38.80;18.67;;;4.40;99.90;;;;;;4857364;29;20371;-59
2023/03/20 01:46:52;;;;;;;37.27;17.67;;;4.40;99.90;;;;;;4857536;29;20746;-59
2023/03/20 01:49:58;;;;;;;36.83;18.17;;;4.40;99.90;;;;;;4858840;29;20200;-59
2023/03/20 01:52:26;;;;;;;36.03;17.83;;;4.40;99.90;;;;;;4855284;29;20242;-59
2023/03/20 01:54:55;;;;;;;39.57;18.37;;;4.40;99.90;;;;;;4858382;29;20208;-59
2023/03/20 01:57:25;;;;;;;43.00;18.73;;;4.40;99.90;;;;;;4863962;29;20283;-59
2023/03/20 02:00:00;;;;;;;40.63;18.03;;;4.40;99.90;;;;;;4856355;29;20276;-59
2023/03/20 02:02:31;;;;;;;37.70;17.90;;;4.50;99.90;;;;;;4860923;29;20236;-59
2023/03/20 02:05:04;;;;;;;34.67;17.67;;;4.50;99.90;;;;;;4861908;29;20234;-59
2023/03/20 02:07:34;;;;;;;46.60;18.47;;;4.50;99.90;;;;;;4861035;29;20543;-58
2023/03/20 02:10:04;;;;;;;39.67;18.67;;;4.60;99.90;;;;;;4855305;29;20718;-59
2023/03/20 02:12:33;;;;;;;45.60;17.97;;;4.60;99.90;;;;;;4854829;29;20246;-59
2023/03/20 02:15:04;;;;;;;38.47;17.10;;;4.60;99.90;;;;;;4859074;29;20232;-59
2023/03/20 02:17:33;;;;;;;38.50;18.37;;;4.60;99.90;;;;;;4857056;29;20311;-59
2023/03/20 02:20:10;;;;;;;40.90;17.83;;;4.60;99.90;;;;;;4851558;29;20238;-59
2023/03/20 02:23:06;;;;;;;45.20;17.70;;;4.70;99.90;;;;;;4853246;29;20242;-58
2023/03/20 02:26:10;;;;;;;39.07;17.63;;;4.70;99.90;;;;;;4854134;29;20226;-58
2023/03/20 02:29:12;;;;;;;39.03;17.20;;;4.70;99.90;;;;;;4861683;29;20199;-58
2023/03/20 02:32:17;;;;;;;37.27;17.47;;;4.70;99.90;;;;;;4829680;29;20214;-59
2023/03/20 02:35:05;;;;;;;40.67;16.77;;;4.70;99.90;;;;;;4858420;29;20263;-58
2023/03/20 02:37:56;;;;;;;45.50;17.67;;;4.70;99.90;;;;;;4857698;29;20336;-58
2023/03/20 02:40:33;;;;;;;43.10;16.67;;;4.70;99.90;;;;;;4858867;29;20203;-59
2023/03/20 02:43:09;;;;;;;37.53;16.77;;;4.70;99.90;;;;;;4865090;29;20741;-59
2023/03/20 02:45:46;;;;;;;39.17;16.50;;;4.70;99.90;;;;;;4853368;29;20228;-59
2023/03/20 02:48:24;;;;;;;38.30;16.70;;;4.70;99.90;;;;;;4854179;29;20227;-59
2023/03/20 02:51:00;;;;;;;37.37;17.27;;;4.80;99.90;;;;;;4858358;29;20254;-59
2023/03/20 02:53:40;;;;;;;42.03;15.73;;;4.80;99.90;;;;;;4856493;29;20234;-58
2023/03/20 02:56:16;;;;;;;38.70;16.47;;;4.80;99.90;;;;;;4854740;29;20232;-59
2023/03/20 02:58:50;;;;;;;42.03;16.37;;;4.90;99.90;;;;;;4856968;29;20226;-58
2023/03/20 03:01:26;;;;;;;41.33;16.87;;;4.90;99.90;;;;;;4860200;29;20198;-59
2023/03/20 03:03:58;;;;;;;38.17;16.77;;;4.90;99.90;;;;;;4857655;29;20219;-59
2023/03/20 03:06:30;;;;;;;40.43;15.87;;;4.90;99.90;;;;;;4860219;29;20227;-59
2023/03/20 03:09:04;;;;;;;34.30;15.77;;;4.80;99.90;;;;;;4858205;29;20234;-59
2023/03/20 03:11:36;;;;;;;35.83;16.13;;;4.80;99.90;;;;;;4855771;29;20286;-59
2023/03/20 03:14:06;;;;;;;33.63;16.00;;;4.80;99.90;;;;;;4855521;29;20231;-59
2023/03/20 03:16:38;;;;;;;38.00;14.50;;;4.80;99.90;;;;;;4856313;29;20204;-58
2023/03/20 03:19:09;;;;;;;42.40;15.83;;;4.70;99.90;;;;;;4853104;29;20577;-59
2023/03/20 03:21:40;;;;;;;36.87;15.37;;;4.70;99.90;;;;;;4851890;29;20311;-59
2023/03/20 03:24:28;;;;;;;32.00;16.03;;;4.80;99.90;;;;;;4854373;29;20678;-59
2023/03/20 03:27:16;;;;;;;38.20;15.83;;;4.80;99.90;;;;;;4857459;29;20223;-59
2023/03/20 03:29:47;;;;;;;37.00;16.00;;;4.80;99.90;;;;;;4858140;29;20226;-60
2023/03/20 03:32:27;;;;;;;36.73;15.87;;;4.80;99.90;;;;;;4857693;29;20235;-59
2023/03/20 03:34:56;;;;;;;38.10;15.73;;;4.80;99.90;;;;;;4855587;29;20295;-59
2023/03/20 03:37:38;;;;;;;35.23;15.00;;;4.90;99.90;;;;;;4858845;29;20204;-59
2023/03/20 03:40:19;;;;;;;29.23;14.03;;;5.00;99.90;;;;;;4860254;29;22273;-59
2023/03/20 03:42:55;;;;;;;31.43;14.20;;;5.00;99.90;;;;;;4856662;29;20227;-59
2023/03/20 03:45:30;;;;;;;32.83;14.77;;;5.00;99.90;;;;;;4856753;29;20222;-59
2023/03/20 03:48:03;;;;;;;40.27;14.67;;;5.00;99.90;;;;;;4851520;29;20238;-59
2023/03/20 03:50:34;;;;;;;35.83;14.33;;;5.00;99.90;;;;;;4858167;29;20754;-59
2023/03/20 03:53:07;;;;;;;37.40;14.43;;;5.00;99.90;;;;;;4858459;29;20227;-58
2023/03/20 03:55:41;;;;;;;35.77;13.67;;;5.00;99.90;;;;;;4860113;29;20255;-59
2023/03/20 03:58:14;;;;;;;31.23;13.90;;;5.00;99.90;;;;;;4858003;29;20603;-59
2023/03/20 04:00:46;;;;;;;30.77;14.33;;;5.00;99.90;;;;;;4856833;29;20248;-59
2023/03/20 04:03:16;;;;;;;30.23;13.90;;;5.00;99.90;;;;;;4854371;29;20247;-59
2023/03/20 04:05:47;;;;;;;33.33;14.33;;;5.00;99.90;;;;;;4856717;29;20223;-59
2023/03/20 04:08:16;;;;;;;32.87;13.60;;;5.00;99.90;;;;;;4856591;29;20277;-59
2023/03/20 04:10:45;;;;;;;35.27;13.60;;;5.00;99.90;;;;;;4854110;29;20260;-59
2023/03/20 04:13:15;;;;;;;32.60;14.20;;;5.00;99.90;;;;;;4854086;29;20292;-59
2023/03/20 04:15:43;;;;;;;32.97;13.97;;;5.00;99.90;;;;;;4855219;29;20242;-59
2023/03/20 04:18:16;;;;;;;29.63;13.83;;;5.00;99.90;;;;;;4853438;29;20582;-59
2023/03/20 04:20:44;;;;;;;32.60;13.17;;;5.00;99.90;;;;;;4853032;29;20255;-59
2023/03/20 04:23:12;;;;;;;33.37;13.63;;;5.00;99.90;;;;;;4853801;29;20239;-59
2023/03/20 04:25:41;;;;;;;30.83;13.60;;;5.00;99.90;;;;;;4857469;29;20199;-59
2023/03/20 04:28:14;;;;;;;33.53;13.73;;;5.00;99.90;;;;;;4854009;29;20528;-59
2023/03/20 04:30:47;;;;;;;32.83;14.23;;;5.00;99.90;;;;;;4855493;29;20321;-59
2023/03/20 04:33:15;;;;;;;27.53;12.67;;;5.00;99.90;;;;;;4853214;29;20228;-59
2023/03/20 04:35:43;;;;;;;30.53;12.73;;;5.00;99.90;;;;;;4854396;29;20254;-59
2023/03/20 04:38:11;;;;;;;30.90;13.67;;;5.00;99.90;;;;;;4856124;29;20235;-59
2023/03/20 04:40:40;;;;;;;29.40;13.27;;;5.00;99.90;;;;;;4852983;29;20211;-58
2023/03/20 04:43:09;;;;;;;32.77;13.47;;;5.00;99.90;;;;;;4852851;29;20241;-59
2023/03/20 04:45:37;;;;;;;32.47;13.27;;;5.00;99.90;;;;;;4855621;29;20231;-59
2023/03/20 04:48:06;;;;;;;28.77;13.30;;;5.00;99.90;;;;;;4855225;29;20582;-59
2023/03/20 04:50:35;;;;;;;38.13;15.17;;;5.00;99.90;;;;;;4857207;29;20222;-59
2023/03/20 04:53:03;;;;;;;47.27;14.50;;;5.00;99.90;;;;;;4857844;29;20246;-59
2023/03/20 04:55:31;;;;;;;34.63;14.10;;;5.00;99.90;;;;;;4853936;29;20215;-58
2023/03/20 04:58:00;;;;;;;34.70;14.33;;;5.10;99.90;;;;;;4859389;29;20210;-59
2023/03/20 05:00:30;;;;;;;38.57;14.30;;;5.10;99.90;;;;;;4841057;29;20238;-59
2023/03/20 05:02:58;;;;;;;34.70;13.93;;;5.00;99.90;;;;;;4854633;29;20287;-59
2023/03/20 05:05:28;;;;;;;33.97;14.80;;;5.00;99.90;;;;;;4858325;29;20280;-59
2023/03/20 05:07:56;;;;;;;35.40;14.13;;;5.10;99.90;;;;;;4858186;29;20235;-59
2023/03/20 05:10:24;;;;;;;34.70;15.10;;;5.10;99.90;;;;;;4852055;29;20228;-59
2023/03/20 05:12:53;;;;;;;38.20;15.03;;;5.00;99.90;;;;;;4862834;29;20263;-59
2023/03/20 05:15:21;;;;;;;37.33;14.90;;;5.00;99.90;;;;;;4856969;29;20283;-59
2023/03/20 05:17:50;;;;;;;35.33;14.30;;;5.10;99.90;;;;;;4857305;29;20310;-59
2023/03/20 05:20:19;;;;;;;35.00;15.37;;;5.10;99.90;;;;;;4859088;29;20236;-59
2023/03/20 05:22:49;;;;;;;35.27;14.67;;;5.10;99.90;;;;;;4858218;29;20292;-59
2023/03/20 05:25:18;;;;;;;48.83;16.43;;;5.10;99.90;;;;;;4851086;29;20198;-59
2023/03/20 05:27:46;;;;;;;35.90;15.50;;;5.10;99.90;;;;;;4853673;29;20290;-59
2023/03/20 05:30:15;;;;;;;38.60;16.03;;;5.10;99.90;;;;;;4853263;29;20232;-59
2023/03/20 05:32:44;;;;;;;41.70;15.27;;;5.10;99.90;;;;;;4854245;29;20571;-59
2023/03/20 05:35:13;;;;;;;39.53;15.60;;;5.10;99.90;;;;;;4854565;29;20222;-59
2023/03/20 05:37:41;;;;;;;35.27;16.03;;;5.10;99.90;;;;;;4851928;29;20200;-58
2023/03/20 05:40:12;;;;;;;52.33;16.00;;;5.10;99.90;;;;;;4853839;29;20196;-59
2023/03/20 05:42:40;;;;;;;45.20;15.93;;;5.10;99.90;;;;;;4855986;29;20231;-59
2023/03/20 05:45:10;;;;;;;39.40;15.90;;;5.10;99.90;;;;;;4850378;29;20223;-59
2023/03/20 05:47:38;;;;;;;36.67;16.23;;;5.20;99.90;;;;;;4854146;29;20254;-59
2023/03/20 05:50:07;;;;;;;38.77;15.37;;;5.20;99.90;;;;;;4850630;29;20251;-58
2023/03/20 05:52:36;;;;;;;42.20;17.27;;;5.20;99.90;;;;;;4853103;29;20230;-58
2023/03/20 05:55:05;;;;;;;37.00;16.37;;;5.20;99.90;;;;;;4856318;29;20223;-59
2023/03/20 05:57:33;;;;;;;41.17;17.37;;;5.20;99.90;;;;;;4854363;29;20317;-59
2023/03/20 06:00:03;;;;;;;38.67;17.37;;;5.20;99.90;;;;;;4853793;29;20227;-59
2023/03/20 06:02:31;;;;;;;39.90;16.33;;;5.20;99.90;;;;;;4850281;29;20729;-59
2023/03/20 06:05:00;;;;;;;39.53;15.47;;;5.20;99.90;;;;;;4856565;29;20243;-59
2023/03/20 06:07:28;;;;;;;35.93;15.43;;;5.20;99.90;;;;;;4852250;29;20189;-58
2023/03/20 06:09:57;;;;;;;31.57;14.07;;;5.30;99.90;;;;;;4854347;29;20228;-59
2023/03/20 06:12:26;;;;;;;34.50;14.40;;;5.30;99.90;;;;;;4852109;29;20620;-59
2023/03/20 06:14:54;;;;;;;31.60;14.33;;;5.30;99.90;;;;;;4856393;29;20238;-59
2023/03/20 06:17:22;;;;;;;29.70;13.87;;;5.30;99.90;;;;;;4859025;29;20313;-59
2023/03/20 06:19:50;;;;;;;36.77;13.13;;;5.30;99.90;;;;;;4849407;29;20235;-59
2023/03/20 06:22:18;;;;;;;28.20;12.80;;;5.40;99.90;;;;;;4856631;29;20236;-59
2023/03/20 06:24:47;;;;;;;30.33;12.70;;;5.40;99.90;;;;;;4859202;29;20627;-59
2023/03/20 06:27:17;;;;;;;31.20;12.50;;;5.40;99.90;;;;;;4855549;29;20215;-59
2023/03/20 06:29:45;;;;;;;32.13;11.60;;;5.40;99.90;;;;;;4856126;29;20257;-59
2023/03/20 06:32:13;;;;;;;33.90;11.47;;;5.40;99.90;;;;;;4839578;29;20334;-59
2023/03/20 06:34:41;;;;;;;26.03;11.83;;;5.50;99.90;;;;;;4853354;29;20223;-59
2023/03/20 06:37:10;;;;;;;24.30;11.17;;;5.50;99.90;;;;;;4853125;29;20200;-59
2023/03/20 06:39:38;;;;;;;25.27;10.33;;;5.60;99.90;;;;;;4855700;29;20259;-59
2023/03/20 06:42:06;;;;;;;24.17;10.97;;;5.60;99.90;;;;;;4857501;29;20317;-59
2023/03/20 06:44:36;;;;;;;25.00;9.87;;;5.60;99.90;;;;;;4859231;29;20255;-59
2023/03/20 06:47:04;;;;;;;33.10;10.37;;;5.50;99.90;;;;;;4861020;29;20275;-59
2023/03/20 06:49:32;;;;;;;25.10;10.27;;;5.60;99.90;;;;;;4857088;29;20615;-59
2023/03/20 06:52:01;;;;;;;26.40;9.67;;;5.60;99.90;;;;;;4858688;29;20248;-59
2023/03/20 06:54:30;;;;;;;19.40;9.47;;;5.60;99.90;;;;;;4859202;29;20235;-59
2023/03/20 06:56:58;;;;;;;22.43;9.20;;;5.70;99.90;;;;;;4857867;29;20227;-59
2023/03/20 06:59:28;;;;;;;26.87;9.43;;;5.60;99.90;;;;;;4858276;29;20231;-59
2023/03/20 07:01:58;;;;;;;21.90;9.73;;;5.70;99.90;;;;;;4859368;29;20227;-58
2023/03/20 07:04:26;;;;;;;19.70;8.47;;;5.70;99.90;;;;;;4853264;29;20605;-58
2023/03/20 07:06:55;;;;;;;23.83;9.10;;;5.80;99.90;;;;;;4855655;29;20216;-59
2023/03/20 07:09:24;;;;;;;21.43;8.77;;;5.80;99.90;;;;;;4857188;29;20238;-59
2023/03/20 07:11:52;;;;;;;20.40;8.10;;;5.90;99.90;;;;;;4857129;29;20287;-59
2023/03/20 07:14:21;;;;;;;18.57;8.63;;;6.00;99.90;;;;;;4861440;29;20803;-59
2023/03/20 07:16:49;;;;;;;23.70;8.20;;;6.00;99.90;;;;;;4861048;29;20275;-59
2023/03/20 07:19:19;;;;;;;15.60;7.93;;;6.00;99.90;;;;;;4860496;29;21247;-59
2023/03/20 07:21:48;;;;;;;16.80;7.43;;;6.10;99.90;;;;;;4863979;29;20619;-59
2023/03/20 07:24:16;;;;;;;17.77;8.50;;;6.20;99.90;;;;;;4861382;29;20623;-59
2023/03/20 07:26:44;;;;;;;24.43;8.37;;;6.20;99.90;;;;;;4861617;29;20246;-59
2023/03/20 07:29:13;;;;;;;22.80;8.07;;;6.30;99.90;;;;;;4857141;29;20235;-59
2023/03/20 07:31:41;;;;;;;20.43;7.80;;;6.40;99.90;;;;;;4860454;29;20231;-58
2023/03/20 07:34:09;;;;;;;18.37;7.23;;;6.40;99.90;;;;;;4860799;29;20207;-59
2023/03/20 07:36:40;;;;;;;19.20;7.53;;;6.40;99.90;;;;;;4858052;29;20227;-59
2023/03/20 07:39:08;;;;;;;21.45;8.65;;;6.50;99.90;;;;;;4854090;29;20445;-59
2023/03/20 07:41:37;;;;;;;22.87;6.90;;;6.50;99.90;;;;;;4858595;29;20271;-59
2023/03/20 07:44:07;;;;;;;21.63;7.13;;;6.60;99.90;;;;;;4856641;29;20275;-58
2023/03/20 07:46:35;;;;;;;13.17;6.20;;;6.60;99.90;;;;;;4855882;29;20188;-58
2023/03/20 07:49:04;;;;;;;14.80;7.10;;;6.70;99.90;;;;;;4861980;29;20596;-59
2023/03/20 07:51:32;;;;;;;19.63;7.37;;;6.70;99.90;;;;;;4860164;29;20246;-59
2023/03/20 07:54:02;;;;;;;20.57;6.77;;;6.70;99.90;;;;;;4860827;29;20236;-59
2023/03/20 07:56:30;;;;;;;13.87;6.43;;;6.70;99.90;;;;;;4860850;29;20303;-59
2023/03/20 07:58:58;;;;;;;15.30;6.50;;;6.70;99.90;;;;;;4859620;29;20567;-58
2023/03/20 08:01:27;;;;;;;14.80;6.27;;;6.80;99.90;;;;;;4856893;29;20246;-58
2023/03/20 08:03:55;;;;;;;16.77;6.27;;;6.80;99.90;;;;;;4859710;29;20631;-59
2023/03/20 08:06:24;;;;;;;20.70;6.40;;;6.90;99.90;;;;;;4857902;29;20329;-59
2023/03/20 08:08:52;;;;;;;18.37;6.20;;;6.80;99.90;;;;;;4859775;29;20227;-59
2023/03/20 08:11:22;;;;;;;15.77;6.03;;;6.90;99.90;;;;;;4854672;29;20793;-59
2023/03/20 08:13:50;;;;;;;21.37;6.37;;;7.00;99.90;;;;;;4855772;29;20231;-58
2023/03/20 08:16:19;;;;;;;19.43;6.03;;;7.00;99.90;;;;;;4861216;29;20208;-59
2023/03/20 08:18:49;;;;;;;14.20;6.13;;;7.00;99.90;;;;;;4857206;29;20230;-59
2023/03/20 08:21:17;;;;;;;18.20;7.00;;;7.10;99.90;;;;;;4859968;29;20231;-59
2023/03/20 08:23:46;;;;;;;17.27;6.57;;;7.10;99.90;;;;;;4857241;29;20291;-59
2023/03/20 08:26:14;;;;;;;12.40;6.57;;;7.10;99.90;;;;;;4860510;29;20889;-59
2023/03/20 08:28:44;;;;;;;17.33;6.67;;;7.20;99.90;;;;;;4857877;29;20204;-59
2023/03/20 08:31:16;;;;;;;14.47;6.37;;;7.20;99.90;;;;;;4858466;29;20286;-60
2023/03/20 08:33:45;;;;;;;17.57;7.00;;;7.30;99.90;;;;;;4859285;29;20229;-59
2023/03/20 08:36:14;;;;;;;19.00;6.63;;;7.20;99.90;;;;;;4855774;29;20548;-59
2023/03/20 08:38:43;;;;;;;16.17;6.43;;;7.30;99.90;;;;;;4858216;29;20223;-59
2023/03/20 08:41:11;;;;;;;17.17;6.47;;;7.30;99.90;;;;;;4860218;29;20231;-59
2023/03/20 08:43:40;;;;;;;14.30;6.00;;;7.40;99.90;;;;;;4859608;29;20199;-58
2023/03/20 08:46:10;;;;;;;12.93;6.03;;;7.40;99.90;;;;;;4860656;29;20200;-59
2023/03/20 08:48:38;;;;;;;25.10;6.20;;;7.50;99.90;;;;;;4859887;29;20228;-59
2023/03/20 08:51:07;;;;;;;19.07;7.00;;;7.60;99.90;;;;;;4842971;29;20224;-59
2023/03/20 08:53:36;;;;;;;19.07;6.07;;;7.60;99.90;;;;;;4859641;29;20304;-59
2023/03/20 08:56:05;;;;;;;17.77;6.70;;;7.70;99.90;;;;;;4853107;29;20276;-58
2023/03/20 08:58:33;;;;;;;19.83;5.67;;;7.70;99.90;;;;;;4855653;29;20192;-57
2023/03/20 09:01:05;;;;;;;17.43;6.40;;;7.80;99.90;;;;;;4841050;29;20207;-59
2023/03/20 09:03:35;;;;;;;10.53;5.27;;;7.90;99.90;;;;;;4848004;29;20227;-59
2023/03/20 09:06:06;;;;;;;14.37;6.07;;;8.00;99.90;;;;;;4856850;29;20243;-59
2023/03/20 09:08:35;;;;;;;11.87;5.70;;;8.10;99.90;;;;;;4859143;29;20227;-59
2023/03/20 09:11:04;;;;;;;16.37;6.20;;;8.30;99.90;;;;;;4853823;29;20242;-59
2023/03/20 09:13:32;;;;;;;15.77;6.00;;;8.40;99.90;;;;;;4853243;29;20215;-58
2023/03/20 09:16:01;;;;;;;11.97;5.73;;;8.50;99.90;;;;;;4855749;29;20562;-59
2023/03/20 09:18:29;;;;;;;20.03;6.17;;;8.70;99.90;;;;;;4848337;29;20253;-59
2023/03/20 09:20:59;;;;;;;16.60;5.97;;;9.00;99.90;;;;;;4858305;29;20223;-59
2023/03/20 09:23:27;;;;;;;14.90;5.03;;;9.40;99.90;;;;;;4856962;29;20247;-59
2023/03/20 09:25:56;;;;;;;14.00;5.63;;;9.60;99.90;;;;;;4859319;29;20287;-58
2023/03/20 09:28:24;;;;;;;10.60;5.60;;;9.70;99.90;;;;;;4859474;29;20188;-59
2023/03/20 09:30:56;;;;;;;15.53;5.77;;;9.80;99.90;;;;;;4859378;29;20234;-59
2023/03/20 09:33:24;;;;;;;17.13;5.57;;;9.70;99.90;;;;;;4859268;29;20303;-59
2023/03/20 09:35:53;;;;;;;13.70;5.17;;;9.60;99.90;;;;;;4858123;29;20272;-59
2023/03/20 09:38:23;;;;;;;15.43;5.87;;;9.60;99.90;;;;;;4859277;29;20231;-59
2023/03/20 09:40:53;;;;;;;14.20;5.60;;;9.80;99.90;;;;;;4859061;29;20227;-59
2023/03/20 09:43:32;;;;;;;14.30;5.50;;;9.80;99.90;;;;;;4856263;29;20196;-59
2023/03/20 09:46:12;;;;;;;14.43;5.77;;;9.70;99.90;;;;;;4847054;29;20248;-59
2023/03/20 09:48:46;;;;;;;10.90;5.77;;;9.60;99.90;;;;;;4839472;29;20687;-59
2023/03/20 09:51:21;;;;;;;12.53;5.47;;;9.60;99.90;;;;;;4857371;29;20283;-59
2023/03/20 09:53:55;;;;;;;10.63;5.50;;;9.70;99.90;;;;;;4859010;29;20230;-59
2023/03/20 09:56:31;;;;;;;12.57;5.60;;;9.90;99.90;;;;;;4859234;29;20223;-59
2023/03/20 09:59:01;;;;;;;8.90;5.17;;;10.10;99.90;;;;;;4853357;29;20276;-59
2023/03/20 10:01:33;;;;;;;14.60;5.67;;;10.10;99.90;;;;;;4859268;29;20550;-59
2023/03/20 10:04:07;;;;;;;15.77;5.17;;;10.30;99.90;;;;;;4855650;29;20199;-59
2023/03/20 10:06:36;;;;;;;11.97;5.23;;;10.30;99.90;;;;;;4858410;29;20221;-59
2023/03/20 10:09:17;;;;;;;18.23;5.70;;;10.30;99.90;;;;;;4858768;29;20219;-59
2023/03/20 10:12:05;;;;;;;12.90;5.40;;;10.40;99.90;;;;;;4854691;29;20223;-59
2023/03/20 10:14:41;;;;;;;14.43;5.00;;;10.30;99.90;;;;;;4854466;29;20227;-59
2023/03/20 10:17:25;;;;;;;13.77;5.13;;;10.20;99.90;;;;;;4856971;29;20235;-59
2023/03/20 10:19:58;;;;;;;10.80;5.03;;;10.20;99.90;;;;;;4860785;29;20235;-59
2023/03/20 10:22:32;;;;;;;11.40;5.33;;;10.30;99.90;;;;;;4861937;29;20231;-59
2023/03/20 10:25:07;;;;;;;12.70;5.27;;;10.40;99.90;;;;;;4857952;29;20208;-59
2023/03/20 10:27:40;;;;;;;13.90;5.33;;;10.40;99.90;;;;;;4856132;29;20234;-59
2023/03/20 10:30:23;;;;;;;15.77;5.10;;;10.40;99.90;;;;;;4862072;29;20227;-59
2023/03/20 10:33:00;;;;;;;12.20;4.70;;;10.30;99.90;;;;;;4861460;29;20306;-59
2023/03/20 10:35:35;;;;;;;21.07;5.37;;;10.50;99.90;;;;;;4861268;29;20297;-59
2023/03/20 10:38:17;;;;;;;18.77;5.83;;;10.40;99.90;;;;;;4856249;29;20249;-59
2023/03/20 10:40:47;;;;;;;15.50;4.87;;;10.50;99.90;;;;;;4860032;29;20286;-58
2023/03/20 10:43:20;;;;;;;10.27;4.50;;;10.70;99.90;;;;;;4855136;29;20563;-59
2023/03/20 10:45:52;;;;;;;14.03;5.17;;;11.10;99.90;;;;;;4860584;29;20219;-59
2023/03/20 10:48:25;;;;;;;11.33;4.60;;;11.80;99.90;;;;;;4860960;29;20242;-59
2023/03/20 10:50:56;;;;;;;11.40;4.23;;;12.10;99.90;;;;;;4861432;29;20279;-59
2023/03/20 10:53:30;;;;;;;12.90;4.83;;;12.30;99.90;;;;;;4859022;29;20584;-59
2023/03/20 10:56:05;;;;;;;14.80;4.27;;;12.50;99.90;;;;;;4861852;29;20851;-59
2023/03/20 10:58:37;;;;;;;15.47;4.80;;;12.50;99.90;;;;;;4861876;29;20553;-58
2023/03/20 11:01:06;;;;;;;9.33;4.27;;;12.60;99.90;;;;;;4862284;29;20199;-59
2023/03/20 11:03:38;;;;;;;14.50;5.00;;;12.90;99.90;;;;;;4856287;29;20725;-59
2023/03/20 11:06:13;;;;;;;13.67;4.37;;;12.90;99.90;;;;;;4860460;29;20713;-59
2023/03/20 11:08:43;;;;;;;17.90;5.10;;;13.20;99.90;;;;;;4858201;29;21098;-59
2023/03/20 11:11:13;;;;;;;12.57;4.67;;;13.10;99.90;;;;;;4856407;29;20690;-60
2023/03/20 11:13:43;;;;;;;10.17;4.90;;;13.00;99.90;;;;;;4859030;29;20228;-59
2023/03/20 11:16:19;;;;;;;10.17;4.53;;;12.80;99.90;;;;;;4863407;29;20699;-59
2023/03/20 11:18:49;;;;;;;16.37;5.93;;;12.90;99.90;;;;;;4855041;29;20250;-60
2023/03/20 11:21:21;;;;;;;9.87;4.60;;;13.20;99.90;;;;;;4858797;29;20219;-60
2023/03/20 11:23:50;;;;;;;15.97;4.97;;;13.60;99.90;;;;;;4859513;29;20232;-60
2023/03/20 11:26:32;;;;;;;14.03;4.60;;;14.30;99.90;;;;;;4858551;29;20323;-59
2023/03/20 11:29:00;;;;;;;18.57;4.97;;;14.20;99.90;;;;;;4855441;29;20231;-59
2023/03/20 11:31:34;;;;;;;13.07;4.87;;;14.10;99.90;;;;;;4867627;29;20202;-59
2023/03/20 11:34:15;;;;;;;12.83;4.60;;;14.30;99.90;;;;;;4858028;29;20673;-60
2023/03/20 11:36:53;;;;;;;12.17;4.60;;;14.70;99.90;;;;;;4858022;29;20252;-60
2023/03/20 11:39:37;;;;;;;12.83;5.03;;;14.80;99.90;;;;;;4858114;29;20582;-60
2023/03/20 11:42:22;;;;;;;12.87;4.70;;;14.50;99.90;;;;;;4857098;29;20324;-60
2023/03/20 11:44:58;;;;;;;16.00;5.10;;;13.90;99.90;;;;;;4856214;29;20311;-59
2023/03/20 11:47:28;;;;;;;13.57;5.03;;;13.40;99.90;;;;;;4859602;29;20706;-60
2023/03/20 11:49:58;;;;;;;10.17;4.73;;;13.20;99.90;;;;;;4854897;29;20238;-59
2023/03/20 11:52:29;;;;;;;12.50;4.70;;;13.40;99.90;;;;;;4861954;29;20204;-59
2023/03/20 11:55:00;;;;;;;12.93;4.90;;;14.20;99.90;;;;;;4861203;29;20192;-60
2023/03/20 11:57:36;;;;;;;10.40;4.50;;;14.60;99.90;;;;;;4845062;29;20901;-60
2023/03/20 12:00:16;;;;;;;9.80;4.87;;;14.90;99.90;;;;;;4860563;29;20704;-60
2023/03/20 12:02:45;;;;;;;15.57;4.83;;;14.90;99.90;;;;;;4851902;29;20226;-60
2023/03/20 12:05:29;;;;;;;11.90;4.80;;;14.50;99.90;;;;;;4856447;29;20280;-59
2023/03/20 12:08:01;;;;;;;14.00;5.03;;;14.40;99.90;;;;;;4859050;29;20261;-59
2023/03/20 12:10:33;;;;;;;16.10;5.07;;;14.40;99.90;;;;;;4858509;29;20204;-59
2023/03/20 12:13:07;;;;;;;12.40;4.60;;;14.60;99.90;;;;;;4857577;29;20227;-60
2023/03/20 12:15:40;;;;;;;14.87;4.93;;;14.80;99.90;;;;;;4856271;29;20223;-60
2023/03/20 12:18:15;;;;;;;17.20;5.03;;;14.70;99.90;;;;;;4855899;29;20228;-59
2023/03/20 12:20:50;;;;;;;15.37;5.10;;;14.50;99.90;;;;;;4857690;29;20239;-59
2023/03/20 12:23:26;;;;;;;16.60;5.30;;;14.10;99.90;;;;;;4857248;29;20227;-59
2023/03/20 12:25:59;;;;;;;14.80;5.50;;;13.60;99.90;;;;;;4857340;29;20611;-59
2023/03/20 12:28:37;;;;;;;13.43;6.20;;;13.20;99.90;;;;;;4856098;29;20224;-59
2023/03/20 12:31:20;;;;;;;18.03;5.50;;;12.90;99.90;;;;;;4857647;29;20231;-59
2023/03/20 12:33:52;;;;;;;15.57;5.93;;;12.80;99.90;;;;;;4857030;29;20231;-59
2023/03/20 12:36:29;;;;;;;20.93;5.33;;;12.60;99.90;;;;;;4860024;29;20234;-59
2023/03/20 12:38:58;;;;;;;17.30;6.53;;;12.50;99.90;;;;;;4853763;29;20282;-60
2023/03/20 12:41:30;;;;;;;18.93;6.30;;;12.40;99.90;;;;;;4855267;29;20231;-59
2023/03/20 12:44:28;;;;;;;17.03;6.33;;;12.30;99.90;;;;;;4851572;29;20861;-59
2023/03/20 12:47:05;;;;;;;20.83;5.67;;;12.30;99.90;;;;;;4853337;29;20263;-59
2023/03/20 12:49:45;;;;;;;19.90;6.27;;;12.30;99.90;;;;;;4851738;29;20191;-59
2023/03/20 12:52:23;;;;;;;24.90;6.47;;;12.40;99.90;;;;;;4856176;29;20192;-59
2023/03/20 12:55:15;;;;;;;16.37;6.30;;;12.40;99.90;;;;;;4858955;29;20226;-59
2023/03/20 12:57:58;;;;;;;16.47;5.80;;;12.50;99.90;;;;;;4853940;29;20255;-59
2023/03/20 13:00:33;;;;;;;19.43;5.97;;;12.60;99.90;;;;;;4854297;29;20250;-59
2023/03/20 13:03:11;;;;;;;11.83;5.83;;;12.50;99.90;;;;;;4854414;29;20258;-59
2023/03/20 13:05:45;;;;;;;19.47;5.70;;;12.70;99.90;;;;;;4853612;29;20334;-59